METAR Data
IDs: Format: Raw Decoded Include TAF

Data at: 0106 UTC 06 Dec 2019

KGSP 060053Z 18003KT 10SM CLR 07/M03 A3016 RMK AO2 SLP214 T00721033
KGSP 052353Z 00000KT 10SM CLR 10/M04 A3015 RMK AO2 SLP209 T01001039 10178 20089 53017
KGSP 052253Z 24004KT 10SM CLR 09/M05 A3013 RMK AO2 SLP203 T00941050
KGSP 052153Z 21005KT 10SM CLR 14/M04 A3011 RMK AO2 SLP195 T01391044
KGSP 052053Z 23006KT 10SM CLR 17/M07 A3010 RMK AO2 SLP191 T01721067 53000
KGSP 051953Z 22005KT 10SM CLR 17/M08 A3008 RMK AO2 SLP184 T01721083
KGSP 051853Z 21005KT 10SM CLR 17/M07 A3008 RMK AO2 SLP183 T01671072
KGSP 051753Z VRB05KT 10SM CLR 16/M08 A3010 RMK AO2 SLP189 T01561078 10161 20033 58001
KGSP 051653Z 29008KT 10SM CLR 15/M07 A3011 RMK AO2 SLP195 T01501072
KGSP 051553Z 35008KT 10SM CLR 13/M06 A3012 RMK AO2 SLP198 T01281061
KGSP 051453Z 35008KT 10SM CLR 12/M04 A3010 RMK AO2 SLP190 T01171044 53032
KGSP 051353Z 03006KT 10SM CLR 09/M03 A3006 RMK AO2 SLP178 T00891028
KGSP 051253Z 01004KT 10SM CLR 04/M02 A3003 RMK AO2 SLP169 T00441022
KGSP 051153Z 00000KT 10SM CLR 06/M03 A3000 RMK AO2 SLP159 T00561033 10078 20022 51025
KGSP 051053Z 26003KT 10SM CLR 04/M03 A2998 RMK AO2 SLP153 T00391033
KGSP 050953Z AUTO 18003KT 10SM CLR 04/M03 A2995 RMK AO2 SLP141 T00441028
KGSP 050853Z AUTO 34003KT 10SM CLR 02/M02 A2993 RMK AO2 SLP132 T00221022 53023
KGSP 050753Z AUTO 00000KT 10SM CLR 04/M03 A2990 RMK AO2 SLP122 T00441033
KGSP 050653Z AUTO 00000KT 10SM CLR 07/M04 A2987 RMK AO2 SLP112 T00721039
KGSP 050553Z AUTO 23004KT 10SM CLR 06/M04 A2986 RMK AO2 SLP108 T00561039 10111 20050 53005
KGSP 050453Z AUTO 22006KT 10SM CLR 06/M04 A2985 RMK AO2 SLP106 T00611044 401671006
KGSP 050353Z 24006KT 10SM CLR 08/M05 A2984 RMK AO2 SLP105 T00781050
KGSP 050253Z 25007KT 10SM CLR 09/M05 A2984 RMK AO2 SLP103 T00941050 50009
KGSP 050153Z 24006KT 10SM CLR 09/M06 A2984 RMK AO2 SLP105 T00941061
KGSP 050053Z 27005KT 10SM CLR 10/M06 A2982 RMK AO2 SLP099 T01001061
KGSP 042353Z 25005KT 10SM CLR 11/M07 A2981 RMK AO2 SLP096 T01061072 10167 20106 51025
KGSP 042253Z 27005KT 10SM CLR 12/M07 A2979 RMK AO2 SLP090 T01221072
KGSP 042153Z 28008KT 10SM CLR 16/M08 A2977 RMK AO2 SLP077 T01561078
KGSP 042053Z 26012G18KT 10SM CLR 17/M07 A2973 RMK AO2 SLP067 T01671067 55008 $
KGSP 041953Z 25009G17KT CLR 16/M03 A2973 RMK AO2 SLP066 T01611033 $
KGSP 041853Z 26008KT CLR 15/M02 A2975 RMK AO2 SLP073 T01501017 $
KGSP 041753Z 25007KT 10SM CLR 14/M02 A2976 RMK AO2 SLP075 T01391022 10139 21006 58018 $
KGSP 041653Z 27008KT 230V290 10SM CLR 12/M02 A2979 RMK AO2 SLP086 T01171022 $
KGSP 041553Z 21004KT 10SM CLR 10/M03 A2981 RMK AO2 SLP093 T01001028 $
KGSP 041453Z 24004KT 10SM CLR 07/M02 A2981 RMK AO2 SLP095 T00721022 51012
KGSP 041353Z 00000KT 9SM CLR 04/M01 A2981 RMK AO2 SLP096 T00441011